createdAt,value
2018-06-20T00:02:26.106Z,6.17
2018-06-20T00:04:54.360Z,6.97
2018-06-20T00:07:22.593Z,9.33
2018-06-20T00:09:50.850Z,9.87
2018-06-20T00:12:19.092Z,10.13
2018-06-20T00:14:47.300Z,10.77
2018-06-20T00:17:15.517Z,9.27
2018-06-20T00:19:43.805Z,10.00
2018-06-20T00:22:12.032Z,6.77
2018-06-20T00:24:40.275Z,7.53
2018-06-20T00:27:08.512Z,7.63
2018-06-20T00:29:36.747Z,7.03
2018-06-20T00:32:04.992Z,7.27
2018-06-20T00:34:33.210Z,7.73
2018-06-20T00:37:01.435Z,7.10
2018-06-20T00:39:29.673Z,7.97
2018-06-20T00:41:57.941Z,7.50
2018-06-20T00:44:26.176Z,6.63
2018-06-20T00:46:54.389Z,8.23
2018-06-20T00:49:22.635Z,7.23
2018-06-20T00:51:50.835Z,7.43
2018-06-20T00:54:19.084Z,6.83
2018-06-20T00:56:47.320Z,7.13
2018-06-20T00:59:15.536Z,9.27
2018-06-20T01:01:43.858Z,8.13
2018-06-20T01:04:12.106Z,7.70
2018-06-20T01:06:40.308Z,8.83
2018-06-20T01:09:10.125Z,7.57
2018-06-20T01:11:38.430Z,7.63
2018-06-20T01:14:06.715Z,8.47
2018-06-20T01:16:34.948Z,7.33
2018-06-20T01:19:03.188Z,8.20
2018-06-20T01:21:31.431Z,7.87
2018-06-20T01:24:18.515Z,7.17
2018-06-20T01:26:46.712Z,7.10
2018-06-20T01:29:14.754Z,8.03
2018-06-20T01:31:42.963Z,7.07
2018-06-20T01:34:11.208Z,8.10
2018-06-20T01:36:39.222Z,7.47
2018-06-20T01:39:09.333Z,8.33
2018-06-20T01:41:37.542Z,8.10
2018-06-20T01:44:05.958Z,8.27
2018-06-20T01:46:33.994Z,8.00
2018-06-20T01:49:02.203Z,8.77
2018-06-20T01:51:30.439Z,7.90
2018-06-20T01:53:58.772Z,7.13
2018-06-20T01:56:27.016Z,9.23
2018-06-20T01:58:55.283Z,9.87
2018-06-20T02:01:23.557Z,8.17
2018-06-20T02:03:51.783Z,7.80
2018-06-20T02:06:20.015Z,8.43
2018-06-20T02:08:50.025Z,8.83
2018-06-20T02:11:18.284Z,9.30
2018-06-20T02:13:46.494Z,7.93
2018-06-20T02:16:14.751Z,8.23
2018-06-20T02:18:42.974Z,9.43
2018-06-20T02:21:11.202Z,7.80
2018-06-20T02:23:39.421Z,9.97
2018-06-20T02:26:07.650Z,8.80
2018-06-20T02:28:35.903Z,9.80
2018-06-20T02:31:04.135Z,9.50
2018-06-20T02:33:32.359Z,9.50
2018-06-20T02:36:04.832Z,11.90
2018-06-20T02:38:33.024Z,12.50
2018-06-20T02:41:01.028Z,11.50
2018-06-20T02:43:29.263Z,9.63
2018-06-20T02:45:57.545Z,11.60
2018-06-20T02:48:25.767Z,10.23
2018-06-20T02:50:54.003Z,11.60
2018-06-20T02:53:22.249Z,9.93
2018-06-20T02:55:50.533Z,11.47
2018-06-20T02:58:18.768Z,11.27
2018-06-20T03:00:47.004Z,13.50
2018-06-20T03:03:15.227Z,12.40
2018-06-20T03:05:43.452Z,11.50
2018-06-20T03:08:11.717Z,11.33
2018-06-20T03:10:39.706Z,14.40
2018-06-20T03:13:07.951Z,11.50
2018-06-20T03:15:36.227Z,13.77
2018-06-20T03:18:04.379Z,9.93
2018-06-20T03:20:32.598Z,10.03
2018-06-20T03:23:00.844Z,10.23
2018-06-20T03:25:29.087Z,11.23
2018-06-20T03:27:57.309Z,9.77
2018-06-20T03:30:25.529Z,10.57
2018-06-20T03:32:53.771Z,10.53
2018-06-20T03:35:21.983Z,15.83
2018-06-20T03:37:50.245Z,13.87
2018-06-20T03:40:18.462Z,15.07
2018-06-20T03:42:46.520Z,16.47
2018-06-20T03:45:14.752Z,15.63
2018-06-20T03:47:42.999Z,16.80
2018-06-20T03:50:11.232Z,13.67
2018-06-20T03:52:39.474Z,14.33
2018-06-20T03:55:07.716Z,10.23
2018-06-20T03:57:35.983Z,13.80
2018-06-20T04:00:04.217Z,13.43
2018-06-20T04:02:32.444Z,10.07
2018-06-20T04:05:00.663Z,9.43
2018-06-20T04:07:28.904Z,12.67
2018-06-20T04:09:57.145Z,13.43
2018-06-20T04:12:25.143Z,11.90
2018-06-20T04:14:53.361Z,10.83
2018-06-20T04:17:21.611Z,15.87
2018-06-20T04:19:49.870Z,11.20
2018-06-20T04:22:18.117Z,13.07
2018-06-20T04:24:46.368Z,10.27
2018-06-20T04:27:14.581Z,9.00
2018-06-20T04:29:42.798Z,9.73
2018-06-20T04:32:11.063Z,10.17
2018-06-20T04:34:39.305Z,14.13
2018-06-20T04:37:07.870Z,11.33
2018-06-20T04:39:36.108Z,10.43
2018-06-20T04:42:04.365Z,11.13
2018-06-20T04:44:32.705Z,12.90
2018-06-20T04:47:00.924Z,14.63
2018-06-20T04:49:29.220Z,12.40
2018-06-20T04:51:57.475Z,17.73
2018-06-20T04:54:26.190Z,18.13
2018-06-20T04:56:54.623Z,16.10
2018-06-20T04:59:23.054Z,19.40
2018-06-20T05:01:51.300Z,14.60
2018-06-20T05:04:19.789Z,14.10
2018-06-20T05:06:48.000Z,18.90
2018-06-20T05:09:18.331Z,17.70
2018-06-20T05:11:47.004Z,19.80
2018-06-20T05:14:15.241Z,16.23
2018-06-20T05:16:43.560Z,13.10
2018-06-20T05:19:12.525Z,14.23
2018-06-20T05:21:40.863Z,13.73
2018-06-20T05:24:09.215Z,13.30
2018-06-20T05:26:37.469Z,12.87
2018-06-20T05:29:05.479Z,12.37
2018-06-20T05:31:33.712Z,15.07
2018-06-20T05:34:02.859Z,14.77
2018-06-20T05:36:31.251Z,12.17
2018-06-20T05:38:59.470Z,16.33
2018-06-20T05:41:27.715Z,15.63
2018-06-20T05:43:55.928Z,13.17
2018-06-20T05:46:24.172Z,12.33
2018-06-20T05:48:52.189Z,13.03
2018-06-20T05:51:20.447Z,13.93
2018-06-20T05:53:48.677Z,18.67
2018-06-20T05:56:16.686Z,12.97
2018-06-20T05:58:44.940Z,13.53
2018-06-20T06:01:13.176Z,14.23
2018-06-20T06:03:41.399Z,13.33
2018-06-20T06:06:14.172Z,10.37
2018-06-20T06:08:42.738Z,14.07
2018-06-20T06:11:11.039Z,13.00
2018-06-20T06:13:39.456Z,17.40
2018-06-20T06:16:07.820Z,10.67
2018-06-20T06:18:36.487Z,12.07
2018-06-20T06:21:05.131Z,12.17
2018-06-20T06:23:33.353Z,11.53
2018-06-20T06:26:01.595Z,10.67
2018-06-20T06:28:29.582Z,12.23
2018-06-20T06:30:58.004Z,13.80
2018-06-20T06:33:26.254Z,14.20
2018-06-20T06:35:54.594Z,14.40
2018-06-20T06:38:22.819Z,10.73
2018-06-20T06:40:51.184Z,12.87
2018-06-20T06:43:19.391Z,9.40
2018-06-20T06:45:47.628Z,10.47
2018-06-20T06:48:15.867Z,8.10
2018-06-20T06:50:44.100Z,9.93
2018-06-20T06:53:12.331Z,10.93
2018-06-20T06:55:40.573Z,5.90
2018-06-20T06:58:08.795Z,6.60
2018-06-20T07:00:37.040Z,6.10
2018-06-20T07:03:05.221Z,5.23
2018-06-20T07:05:33.467Z,5.07
2018-06-20T07:08:01.685Z,6.37
2018-06-20T07:10:29.943Z,4.70
2018-06-20T07:12:58.146Z,4.60
2018-06-20T07:15:26.362Z,6.90
2018-06-20T07:17:54.602Z,4.50
2018-06-20T07:20:22.822Z,3.30
2018-06-20T07:22:50.818Z,4.50
2018-06-20T07:25:19.046Z,6.50
2018-06-20T07:27:47.373Z,7.50
2018-06-20T07:30:15.629Z,5.47
2018-06-20T07:32:43.906Z,7.43
2018-06-20T07:35:12.123Z,6.70
2018-06-20T07:37:40.355Z,6.10
2018-06-20T07:40:08.591Z,7.43
2018-06-20T07:42:36.813Z,4.97
2018-06-20T07:45:05.053Z,7.67
2018-06-20T07:47:33.091Z,8.87
2018-06-20T07:50:01.291Z,6.67
2018-06-20T07:52:29.526Z,12.07
2018-06-20T07:54:57.743Z,7.67
2018-06-20T07:57:25.965Z,7.03
2018-06-20T07:59:59.649Z,6.77
2018-06-20T08:02:44.794Z,8.17
2018-06-20T08:05:18.342Z,7.93
2018-06-20T08:07:51.799Z,10.53
2018-06-20T08:10:25.111Z,6.90
2018-06-20T08:12:58.806Z,7.60
2018-06-20T08:15:32.462Z,7.00
2018-06-20T08:18:06.155Z,7.77
2018-06-20T08:20:34.393Z,8.07
2018-06-20T08:23:02.618Z,8.40
2018-06-20T08:25:30.874Z,7.17
2018-06-20T08:27:59.105Z,7.37
2018-06-20T08:30:27.355Z,7.63
2018-06-20T08:32:55.593Z,9.43
2018-06-20T08:35:23.859Z,8.40
2018-06-20T08:37:52.067Z,7.80
2018-06-20T08:40:20.319Z,6.90
2018-06-20T08:42:48.625Z,8.93
2018-06-20T08:45:17.010Z,10.08
2018-06-20T08:47:45.231Z,8.40
2018-06-20T08:50:13.468Z,7.93
2018-06-20T08:52:41.673Z,9.08
2018-06-20T08:55:10.612Z,7.60
2018-06-20T08:57:38.888Z,8.23
2018-06-20T09:00:07.387Z,7.47
2018-06-20T09:02:35.427Z,6.70
2018-06-20T09:07:14.455Z,7.87
2018-06-20T09:09:48.059Z,7.22
2018-06-20T09:12:21.633Z,6.87
2018-06-20T09:14:55.296Z,7.83
2018-06-20T09:17:28.949Z,5.70
2018-06-20T09:19:58.031Z,6.12
2018-06-20T09:22:26.254Z,6.45
2018-06-20T09:24:54.732Z,7.37
2018-06-20T09:27:22.958Z,6.72
2018-06-20T09:29:51.212Z,5.67
2018-06-20T09:32:19.436Z,8.55
2018-06-20T09:34:47.665Z,6.50
2018-06-20T09:37:15.907Z,6.92
2018-06-20T09:39:44.325Z,6.80
2018-06-20T09:42:12.646Z,9.88
2018-06-20T09:44:40.904Z,6.60
2018-06-20T09:47:09.183Z,6.37
2018-06-20T09:49:37.602Z,7.43
2018-06-20T09:52:05.842Z,5.57
2018-06-20T09:54:34.136Z,9.30
2018-06-20T09:57:02.381Z,6.87
2018-06-20T09:59:35.919Z,17.70
2018-06-20T10:02:09.719Z,8.40
2018-06-20T10:04:43.310Z,6.17
2018-06-20T10:07:14.929Z,6.63
2018-06-20T10:09:48.466Z,6.35
2018-06-20T10:12:22.035Z,6.67
2018-06-20T10:14:50.257Z,5.92
2018-06-20T10:17:18.535Z,5.97
2018-06-20T10:19:46.752Z,5.65
2018-06-20T10:22:15.029Z,6.62
2018-06-20T10:24:43.243Z,8.95
2018-06-20T10:27:11.241Z,6.20
2018-06-20T10:29:39.469Z,6.25
2018-06-20T10:32:07.687Z,5.75
2018-06-20T10:34:35.937Z,5.67
2018-06-20T10:37:04.224Z,5.00
2018-06-20T10:39:32.430Z,5.70
2018-06-20T10:42:00.655Z,6.03
2018-06-20T10:44:28.669Z,5.62
2018-06-20T10:47:02.231Z,8.85
2018-06-20T10:49:30.867Z,7.60
2018-06-20T10:51:59.083Z,5.33
2018-06-20T10:54:27.128Z,4.30
2018-06-20T10:57:00.759Z,5.67
2018-06-20T10:59:34.391Z,5.40
2018-06-20T11:02:07.958Z,5.00
2018-06-20T11:04:41.303Z,6.03
2018-06-20T11:07:14.883Z,5.05
2018-06-20T11:09:48.447Z,6.53
2018-06-20T11:12:21.984Z,5.95
2018-06-20T11:14:50.233Z,5.12
2018-06-20T11:17:18.448Z,5.80
2018-06-20T11:19:46.998Z,5.42
2018-06-20T11:22:15.235Z,6.45
2018-06-20T11:24:43.491Z,6.33
2018-06-20T11:27:11.756Z,6.62
2018-06-20T11:29:39.993Z,5.05
2018-06-20T11:32:08.219Z,5.70
2018-06-20T11:34:36.432Z,6.42
2018-06-20T11:37:04.799Z,7.42
2018-06-20T11:39:33.090Z,5.55
2018-06-20T11:42:01.311Z,5.33
2018-06-20T11:44:29.546Z,7.05
2018-06-20T11:47:03.141Z,5.22
2018-06-20T11:49:31.371Z,4.92
2018-06-20T11:51:59.584Z,11.45
2018-06-20T11:54:27.842Z,7.12
2018-06-20T11:56:56.050Z,8.43
2018-06-20T11:59:29.776Z,5.05
2018-06-20T12:02:03.387Z,6.72
2018-06-20T12:04:37.137Z,5.78
2018-06-20T12:07:10.837Z,7.35
2018-06-20T12:09:44.484Z,6.67
2018-06-20T12:12:18.067Z,5.87
2018-06-20T12:16:54.441Z,16.93
2018-06-20T12:19:27.996Z,5.47
2018-06-20T12:22:01.590Z,6.35
2018-06-20T12:24:35.172Z,5.72
2018-06-20T12:27:08.760Z,6.80
2018-06-20T12:29:42.383Z,7.87
2018-06-20T12:32:16.175Z,5.75
2018-06-20T12:34:49.676Z,7.97
2018-06-20T12:37:23.362Z,6.00
2018-06-20T12:39:55.825Z,5.78
2018-06-20T12:42:29.290Z,5.15
2018-06-20T12:45:05.928Z,6.12
2018-06-20T12:47:40.116Z,11.25
2018-06-20T12:50:25.462Z,5.70
2018-06-20T12:52:53.794Z,6.55
2018-06-20T12:55:22.444Z,5.17
2018-06-20T12:57:50.699Z,6.87
2018-06-20T13:00:18.952Z,4.78
2018-06-20T13:02:47.180Z,4.55
2018-06-20T13:05:15.895Z,8.43
2018-06-20T13:07:44.197Z,4.65
2018-06-20T13:10:12.434Z,7.90
2018-06-20T13:12:40.917Z,6.25
2018-06-20T13:15:09.156Z,6.67
2018-06-20T13:17:37.559Z,7.92
2018-06-20T13:20:05.837Z,4.58
2018-06-20T13:22:34.048Z,4.30
2018-06-20T13:25:02.348Z,4.40
2018-06-20T13:27:35.954Z,5.50
2018-06-20T13:30:10.311Z,4.75
2018-06-20T13:32:43.969Z,8.45
2018-06-20T13:35:17.614Z,8.98
2018-06-20T13:37:51.227Z,5.67
2018-06-20T13:40:25.039Z,7.72
2018-06-20T13:42:58.492Z,9.70
2018-06-20T13:45:32.244Z,6.70
2018-06-20T13:48:05.711Z,6.17
2018-06-20T13:50:34.407Z,4.35
2018-06-20T13:53:02.783Z,3.85
2018-06-20T13:55:31.093Z,4.65
2018-06-20T13:57:59.440Z,4.90
2018-06-20T14:00:27.908Z,4.42
2018-06-20T14:02:56.404Z,9.23
2018-06-20T14:05:25.456Z,6.37
2018-06-20T14:07:53.784Z,4.78
2018-06-20T14:10:21.821Z,6.12
2018-06-20T14:12:50.047Z,3.92
2018-06-20T14:15:18.276Z,5.22
2018-06-20T14:17:46.523Z,4.70
2018-06-20T14:20:20.224Z,4.67
2018-06-20T14:22:48.460Z,4.40
2018-06-20T14:25:16.711Z,6.10
2018-06-20T14:27:44.935Z,4.12
2018-06-20T14:30:17.421Z,4.72
2018-06-20T14:32:51.117Z,5.97
2018-06-20T14:35:24.565Z,5.72
2018-06-20T14:40:01.699Z,4.70
2018-06-20T14:42:35.183Z,4.97
2018-06-20T14:45:08.907Z,4.30
2018-06-20T14:47:37.202Z,4.78
2018-06-20T14:50:05.444Z,4.28
2018-06-20T14:52:33.691Z,4.53
2018-06-20T14:55:01.966Z,4.75
2018-06-20T14:57:30.208Z,4.85
2018-06-20T14:59:58.440Z,3.65
2018-06-20T15:02:26.716Z,4.80
2018-06-20T15:04:54.968Z,3.50
2018-06-20T15:07:23.271Z,4.12
2018-06-20T15:09:51.613Z,4.03
2018-06-20T15:12:20.880Z,5.87
2018-06-20T15:14:49.200Z,4.12
2018-06-20T15:17:22.899Z,5.00
2018-06-20T15:19:50.931Z,3.60
2018-06-20T15:22:19.247Z,3.90
2018-06-20T15:24:47.262Z,4.28
2018-06-20T15:27:22.018Z,4.35
2018-06-20T15:29:55.575Z,5.15
2018-06-20T15:32:29.556Z,4.35
2018-06-20T15:35:03.176Z,3.80
2018-06-20T15:37:36.816Z,3.95
2018-06-20T15:40:05.146Z,5.83
2018-06-20T15:42:33.435Z,3.90
2018-06-20T15:45:01.647Z,3.52
2018-06-20T15:47:30.000Z,3.50
2018-06-20T15:49:58.338Z,4.35
2018-06-20T15:52:26.632Z,3.35
2018-06-20T15:54:54.919Z,3.42
2018-06-20T15:57:23.145Z,6.55
2018-06-20T15:59:51.371Z,5.87
2018-06-20T16:02:19.647Z,3.40
2018-06-20T16:04:47.872Z,5.58
2018-06-20T16:07:16.143Z,5.92
2018-06-20T16:09:49.897Z,5.67
2018-06-20T16:12:18.119Z,5.08
2018-06-20T16:14:46.444Z,5.78
2018-06-20T16:17:14.696Z,7.00
2018-06-20T16:19:48.402Z,5.20
2018-06-20T16:22:22.203Z,3.25
2018-06-20T16:24:55.821Z,5.55
2018-06-20T16:27:30.560Z,4.10
2018-06-20T16:30:04.133Z,4.03
2018-06-20T16:32:32.170Z,6.12
2018-06-20T16:35:00.386Z,5.12
2018-06-20T16:37:28.662Z,8.95
2018-06-20T16:39:56.708Z,6.65
2018-06-20T16:42:24.754Z,3.98
2018-06-20T16:44:53.016Z,3.62
2018-06-20T16:47:21.255Z,5.72
2018-06-20T16:49:49.519Z,5.72
2018-06-20T16:52:17.753Z,3.65
2018-06-20T16:54:45.999Z,3.47
2018-06-20T16:57:14.259Z,3.90
2018-06-20T16:59:42.555Z,5.87
2018-06-20T17:02:16.141Z,5.50
2018-06-20T17:04:44.380Z,6.47
2018-06-20T17:07:17.138Z,3.90
2018-06-20T17:09:45.732Z,3.72
2018-06-20T17:12:19.404Z,5.40
2018-06-20T17:14:53.094Z,3.50
2018-06-20T17:17:26.762Z,4.12
2018-06-20T17:20:00.373Z,5.58
2018-06-20T17:22:33.952Z,4.67
2018-06-20T17:25:07.571Z,4.80
2018-06-20T17:27:35.778Z,4.25
2018-06-20T17:30:04.612Z,3.83
2018-06-20T17:32:32.880Z,4.95
2018-06-20T17:35:00.898Z,3.90
2018-06-20T17:37:29.356Z,3.80
2018-06-20T17:39:57.596Z,5.53
2018-06-20T17:42:25.916Z,5.22
2018-06-20T17:44:54.206Z,5.40
2018-06-20T17:47:22.499Z,4.00
2018-06-20T17:49:50.765Z,4.47
2018-06-20T17:52:19.055Z,5.00
2018-06-20T17:54:47.316Z,4.25
2018-06-20T17:57:15.524Z,4.30
2018-06-20T17:59:43.764Z,5.03
2018-06-20T18:02:12.022Z,3.85
2018-06-20T18:04:45.781Z,6.08
2018-06-20T18:07:20.079Z,3.83
2018-06-20T18:09:53.673Z,4.05
2018-06-20T18:12:27.377Z,5.42
2018-06-20T18:15:00.911Z,5.45
2018-06-20T18:17:29.196Z,4.28
2018-06-20T18:19:57.420Z,4.17
2018-06-20T18:22:25.719Z,6.72
2018-06-20T18:24:53.940Z,5.03
2018-06-20T18:27:22.172Z,4.08
2018-06-20T18:29:50.683Z,6.72
2018-06-20T18:32:21.214Z,4.28
2018-06-20T18:34:49.567Z,4.67
2018-06-20T18:37:17.774Z,6.03
2018-06-20T18:39:51.573Z,4.62
2018-06-20T18:42:19.811Z,6.25
2018-06-20T18:44:48.028Z,6.12
2018-06-20T18:47:24.131Z,4.30
2018-06-20T18:49:52.520Z,4.10
2018-06-20T18:52:20.899Z,7.45
2018-06-20T18:54:49.171Z,5.50
2018-06-20T18:57:22.889Z,4.80
2018-06-20T18:59:56.544Z,5.63
2018-06-20T19:04:37.875Z,5.97
2018-06-20T19:07:11.379Z,6.27
2018-06-20T19:09:39.679Z,4.60
2018-06-20T19:12:07.938Z,4.77
2018-06-20T19:14:35.939Z,5.30
2018-06-20T19:17:04.183Z,6.17
2018-06-20T19:19:32.401Z,4.57
2018-06-20T19:22:00.626Z,4.90
2018-06-20T19:24:28.839Z,6.13
2018-06-20T19:26:57.100Z,5.13
2018-06-20T19:29:25.346Z,5.63
2018-06-20T19:31:53.382Z,8.47
2018-06-20T19:34:21.615Z,5.87
2018-06-20T19:36:49.843Z,5.67
2018-06-20T19:39:23.607Z,8.40
2018-06-20T19:41:51.786Z,4.63
2018-06-20T19:44:25.375Z,7.87
2018-06-20T19:46:53.600Z,6.57
2018-06-20T19:49:21.851Z,5.33
2018-06-20T19:51:50.088Z,6.10
2018-06-20T19:54:18.428Z,5.40
2018-06-20T19:56:46.663Z,6.03
2018-06-20T19:59:14.900Z,5.90
2018-06-20T20:01:43.133Z,6.17
2018-06-20T20:04:11.370Z,6.77
2018-06-20T20:06:39.593Z,9.27
2018-06-20T20:09:08.624Z,5.53
2018-06-20T20:11:36.856Z,6.47
2018-06-20T20:14:05.131Z,6.80
2018-06-20T20:16:33.356Z,5.93
2018-06-20T20:19:01.607Z,7.73
2018-06-20T20:21:29.954Z,6.33
2018-06-20T20:23:58.181Z,8.23
2018-06-20T20:26:26.411Z,8.10
2018-06-20T20:28:54.692Z,8.60
2018-06-20T20:31:22.807Z,7.03
2018-06-20T20:33:51.931Z,10.60
2018-06-20T20:36:20.191Z,7.97
2018-06-20T20:38:48.744Z,9.30
2018-06-20T20:41:17.509Z,8.73
2018-06-20T20:43:45.508Z,9.27
2018-06-20T20:46:13.765Z,7.63
2018-06-20T20:48:41.980Z,7.00
2018-06-20T20:51:10.533Z,8.40
2018-06-20T20:53:38.911Z,7.43
2018-06-20T20:56:07.152Z,7.20
2018-06-20T20:58:35.142Z,6.97
2018-06-20T21:01:03.400Z,8.23
2018-06-20T21:03:31.633Z,7.83
2018-06-20T21:05:59.914Z,7.70
2018-06-20T21:08:28.183Z,8.70
2018-06-20T21:10:56.425Z,8.07
2018-06-20T21:13:24.668Z,10.30
2018-06-20T21:15:52.911Z,9.10
2018-06-20T21:18:21.239Z,8.87
2018-06-20T21:20:49.595Z,6.77
2018-06-20T21:23:17.820Z,7.83
2018-06-20T21:25:46.035Z,7.87
2018-06-20T21:28:14.247Z,7.07
2018-06-20T21:30:42.479Z,9.67
2018-06-20T21:33:10.695Z,8.60
2018-06-20T21:35:38.924Z,12.43
2018-06-20T21:38:07.139Z,11.50
2018-06-20T21:40:35.354Z,12.53
2018-06-20T21:43:03.571Z,11.10
2018-06-20T21:45:31.562Z,8.97
2018-06-20T21:47:59.795Z,11.63
2018-06-20T21:50:28.015Z,12.90
2018-06-20T21:52:56.259Z,11.63
2018-06-20T21:55:24.461Z,9.53
2018-06-20T21:57:52.670Z,8.53
2018-06-20T22:00:22.921Z,11.13
2018-06-20T22:02:51.155Z,9.67
2018-06-20T22:05:25.923Z,10.03
2018-06-20T22:07:54.168Z,7.93
2018-06-20T22:10:22.493Z,11.70
2018-06-20T22:12:50.727Z,9.27
2018-06-20T22:15:18.940Z,7.93
2018-06-20T22:17:47.175Z,9.43
2018-06-20T22:20:15.400Z,8.87
2018-06-20T22:22:43.641Z,9.20
2018-06-20T22:25:11.862Z,11.67
2018-06-20T22:27:40.137Z,10.43
2018-06-20T22:30:08.388Z,9.50
2018-06-20T22:32:36.644Z,12.57
2018-06-20T22:35:04.718Z,15.57
2018-06-20T22:37:33.039Z,9.43
2018-06-20T22:40:01.247Z,9.07
2018-06-20T22:42:29.480Z,8.30
2018-06-20T22:44:57.746Z,9.73
2018-06-20T22:47:26.063Z,9.20
2018-06-20T22:49:54.310Z,10.43
2018-06-20T22:52:23.359Z,10.27
2018-06-20T22:54:51.333Z,10.07
2018-06-20T22:57:19.584Z,11.23
2018-06-20T22:59:47.799Z,11.33
2018-06-20T23:02:16.018Z,14.10
2018-06-20T23:04:44.223Z,11.23
2018-06-20T23:07:12.473Z,16.90
2018-06-20T23:09:40.768Z,9.50
2018-06-20T23:12:08.971Z,10.70
2018-06-20T23:14:37.175Z,9.03
2018-06-20T23:17:05.408Z,8.53
2018-06-20T23:19:33.612Z,10.10
2018-06-20T23:22:01.884Z,10.47
2018-06-20T23:24:30.137Z,10.33
2018-06-20T23:26:58.363Z,10.30
2018-06-20T23:29:26.583Z,11.03
2018-06-20T23:31:54.784Z,9.27
2018-06-20T23:34:23.007Z,10.50
2018-06-20T23:36:50.983Z,8.97
2018-06-20T23:39:19.209Z,9.70
2018-06-20T23:41:47.470Z,10.27
2018-06-20T23:44:15.697Z,10.50
2018-06-20T23:46:44.339Z,11.03
2018-06-20T23:49:12.563Z,9.10
2018-06-20T23:51:40.794Z,10.57
2018-06-20T23:54:09.051Z,9.57
2018-06-20T23:56:37.263Z,9.50
2018-06-20T23:59:05.479Z,9.33
